createdAt,value
2022-08-27T00:01:41.635Z,99657.87
2022-08-27T00:04:44.732Z,99668.97
2022-08-27T00:07:47.692Z,99679.38
2022-08-27T00:10:50.565Z,99680.37
2022-08-27T00:13:53.329Z,99686.59
2022-08-27T00:16:57.370Z,99688.56
2022-08-27T00:19:59.998Z,99693.78
2022-08-27T00:23:02.838Z,99691.47
2022-08-27T00:26:06.542Z,99692.59
2022-08-27T00:29:09.555Z,99685.22
2022-08-27T00:32:12.130Z,99694.06
2022-08-27T00:35:16.247Z,99694.69
2022-08-27T00:38:20.543Z,99699.81
2022-08-27T00:41:23.637Z,99698.75
2022-08-27T00:44:28.093Z,99699.75
2022-08-27T00:47:32.176Z,99699.44
2022-08-27T00:50:38.487Z,99699.13
2022-08-27T00:53:41.398Z,99694.84
2022-08-27T00:56:51.543Z,99686.97
2022-08-27T00:59:54.825Z,99683.44
2022-08-27T01:02:57.453Z,99691.00
2022-08-27T01:06:02.081Z,99686.06
2022-08-27T01:09:14.809Z,99683.44
2022-08-27T01:12:18.231Z,99685.41
2022-08-27T01:15:22.500Z,99682.34
2022-08-27T01:18:30.209Z,99685.62
2022-08-27T01:22:00.044Z,99684.09
2022-08-27T01:25:07.845Z,99677.56
2022-08-27T01:28:11.761Z,99670.66
2022-08-27T01:31:15.020Z,99676.16
2022-08-27T01:34:17.623Z,99681.87
2022-08-27T01:37:23.990Z,99675.06
2022-08-27T01:40:27.230Z,99673.53
2022-08-27T01:43:31.421Z,99675.81
2022-08-27T01:46:34.086Z,99669.22
2022-08-27T01:49:37.242Z,99670.72
2022-08-27T01:52:40.278Z,99668.75
2022-08-27T01:55:47.691Z,99668.50
2022-08-27T01:58:51.004Z,99678.69
2022-08-27T02:01:54.765Z,99679.25
2022-08-27T02:04:57.723Z,99676.94
2022-08-27T02:08:00.451Z,99686.19
2022-08-27T02:11:03.998Z,99693.63
2022-08-27T02:14:12.909Z,99692.44
2022-08-27T02:17:16.446Z,99680.94
2022-08-27T02:20:20.439Z,99683.97
2022-08-27T02:23:23.337Z,99685.56
2022-08-27T02:26:27.716Z,99689.13
2022-08-27T02:29:30.579Z,99690.97
2022-08-27T02:32:33.126Z,99689.13
2022-08-27T02:35:42.342Z,99685.19
2022-08-27T02:38:44.930Z,99685.41
2022-08-27T02:41:48.674Z,99692.84
2022-08-27T02:44:51.208Z,99690.09
2022-08-27T02:47:54.220Z,99692.06
2022-08-27T02:50:56.793Z,99699.41
2022-08-27T02:54:01.050Z,99701.31
2022-08-27T02:57:04.729Z,99703.28
2022-08-27T03:00:10.065Z,99702.00
2022-08-27T03:03:12.630Z,99711.87
2022-08-27T03:06:15.498Z,99715.88
2022-08-27T03:09:18.025Z,99710.13
2022-08-27T03:12:22.766Z,99700.22
2022-08-27T03:15:27.444Z,99700.06
2022-08-27T03:18:30.235Z,99701.31
2022-08-27T03:21:34.103Z,99704.75
2022-08-27T03:24:37.172Z,99709.03
2022-08-27T03:27:42.751Z,99700.53
2022-08-27T03:30:52.022Z,99717.13
2022-08-27T03:33:58.273Z,99704.50
2022-08-27T03:37:01.576Z,99703.31
2022-08-27T03:40:05.516Z,99707.91
2022-08-27T03:43:08.303Z,99710.16
2022-08-27T03:46:10.984Z,99704.97
2022-08-27T03:49:13.907Z,99701.94
2022-08-27T03:52:17.169Z,99705.34
2022-08-27T03:55:20.072Z,99700.88
2022-08-27T03:58:22.669Z,99702.81
2022-08-27T04:01:25.561Z,99702.03
2022-08-27T04:04:28.590Z,99702.63
2022-08-27T04:07:31.157Z,99698.94
2022-08-27T04:10:35.039Z,99698.13
2022-08-27T04:13:37.642Z,99700.97
2022-08-27T04:16:41.555Z,99706.25
2022-08-27T04:19:44.086Z,99708.19
2022-08-27T04:22:46.886Z,99715.59
2022-08-27T04:25:49.919Z,99711.19
2022-08-27T04:28:52.742Z,99716.38
2022-08-27T04:31:56.597Z,99708.09
2022-08-27T04:35:00.134Z,99716.12
2022-08-27T04:38:04.254Z,99720.34
2022-08-27T04:41:26.524Z,99722.53
2022-08-27T04:44:31.461Z,99727.53
2022-08-27T04:47:34.723Z,99724.41
2022-08-27T04:50:42.168Z,99716.41
2022-08-27T04:53:45.087Z,99727.56
2022-08-27T04:56:47.659Z,99725.34
2022-08-27T04:59:50.893Z,99728.97
2022-08-27T05:02:53.466Z,99724.56
2022-08-27T05:06:01.305Z,99726.16
2022-08-27T05:09:05.173Z,99729.88
2022-08-27T05:12:08.704Z,99731.81
2022-08-27T05:15:11.713Z,99733.56
2022-08-27T05:18:15.031Z,99740.75
2022-08-27T05:21:30.509Z,99747.84
2022-08-27T05:27:36.133Z,99738.06
2022-08-27T05:30:44.778Z,99745.94
2022-08-27T05:33:52.300Z,99749.63
2022-08-27T05:36:55.968Z,99750.16
2022-08-27T05:39:58.646Z,99748.69
2022-08-27T05:43:01.696Z,99755.91
2022-08-27T05:46:06.461Z,99755.91
2022-08-27T05:49:10.276Z,99763.69
2022-08-27T05:52:13.634Z,99766.84
2022-08-27T05:55:16.841Z,99763.34
2022-08-27T05:58:37.683Z,99766.38
2022-08-27T06:01:44.998Z,99763.44
2022-08-27T06:04:48.790Z,99756.87
2022-08-27T06:07:51.418Z,99763.75
2022-08-27T06:10:54.204Z,99770.13
2022-08-27T06:13:57.579Z,99765.31
2022-08-27T06:17:00.978Z,99775.84
2022-08-27T06:20:04.217Z,99773.75
2022-08-27T06:23:07.293Z,99769.59
2022-08-27T06:26:11.814Z,99760.75
2022-08-27T06:29:14.895Z,99776.50
2022-08-27T06:32:17.454Z,99774.78
2022-08-27T06:35:20.331Z,99776.12
2022-08-27T06:38:22.863Z,99779.81
2022-08-27T06:41:27.372Z,99782.56
2022-08-27T06:44:29.894Z,99789.66
2022-08-27T06:47:32.991Z,99794.31
2022-08-27T06:50:40.467Z,99801.81
2022-08-27T06:53:44.935Z,99785.56
2022-08-27T06:56:49.586Z,99796.22
2022-08-27T06:59:52.485Z,99804.50
2022-08-27T07:02:55.157Z,99801.22
2022-08-27T07:06:05.352Z,99805.91
2022-08-27T07:09:09.561Z,99796.81
2022-08-27T07:12:12.711Z,99804.09
2022-08-27T07:15:15.316Z,99807.16
2022-08-27T07:18:18.292Z,99807.62
2022-08-27T07:21:22.029Z,99806.00
2022-08-27T07:24:24.865Z,99799.22
2022-08-27T07:27:27.427Z,99806.94
2022-08-27T07:30:30.357Z,99803.87
2022-08-27T07:33:32.923Z,99798.69
2022-08-27T07:36:35.862Z,99796.22
2022-08-27T07:39:38.385Z,99797.75
2022-08-27T07:43:00.769Z,99791.72
2022-08-27T07:46:04.001Z,99796.91
2022-08-27T07:49:06.879Z,99800.91
2022-08-27T07:52:09.756Z,99794.69
2022-08-27T07:55:13.838Z,99794.78
2022-08-27T07:58:18.538Z,99797.56
2022-08-27T08:01:24.100Z,99804.66
2022-08-27T08:04:27.507Z,99809.72
2022-08-27T08:07:30.052Z,99799.59
2022-08-27T08:10:36.784Z,99803.22
2022-08-27T08:13:39.741Z,99799.81
2022-08-27T08:16:42.698Z,99804.63
2022-08-27T08:20:02.489Z,99800.00
2022-08-27T08:23:10.517Z,99804.09
2022-08-27T08:26:13.372Z,99800.06
2022-08-27T08:29:18.158Z,99793.72
2022-08-27T08:32:21.507Z,99792.47
2022-08-27T08:35:24.546Z,99796.41
2022-08-27T08:38:28.377Z,99799.16
2022-08-27T08:41:44.854Z,99802.44
2022-08-27T08:44:49.999Z,99799.41
2022-08-27T08:48:06.901Z,99806.75
2022-08-27T08:51:34.315Z,99807.69
2022-08-27T08:54:38.681Z,99813.88
2022-08-27T08:57:49.714Z,99808.84
2022-08-27T09:00:57.945Z,99804.47
2022-08-27T09:04:04.172Z,99789.22
2022-08-27T09:07:11.365Z,99791.97
2022-08-27T09:10:35.204Z,99780.22
2022-08-27T09:13:42.389Z,99780.41
2022-08-27T09:16:44.966Z,99789.66
2022-08-27T09:19:52.396Z,99785.72
2022-08-27T09:23:06.936Z,99783.75
2022-08-27T09:26:25.447Z,99788.13
2022-08-27T09:29:29.242Z,99777.22
2022-08-27T09:32:33.598Z,99785.94
2022-08-27T09:35:42.587Z,99787.19
2022-08-27T09:38:56.854Z,99778.47
2022-08-27T09:42:03.412Z,99785.13
2022-08-27T09:45:11.804Z,99784.94
2022-08-27T09:48:18.739Z,99783.16
2022-08-27T09:51:25.774Z,99784.44
2022-08-27T09:54:34.802Z,99774.00
2022-08-27T09:57:42.122Z,99784.34
2022-08-27T10:00:46.298Z,99780.59
2022-08-27T10:03:49.809Z,99778.59
2022-08-27T10:06:53.128Z,99775.53
2022-08-27T10:10:11.204Z,99769.41
2022-08-27T10:13:21.089Z,99775.47
2022-08-27T10:16:23.875Z,99771.69
2022-08-27T10:19:32.314Z,99769.72
2022-08-27T10:22:47.833Z,99771.63
2022-08-27T10:26:00.357Z,99770.88
2022-08-27T10:29:25.934Z,99759.59
2022-08-27T10:32:41.712Z,99758.41
2022-08-27T10:35:54.658Z,99755.91
2022-08-27T10:39:20.285Z,99753.53
2022-08-27T10:42:39.946Z,99754.12
2022-08-27T10:46:01.689Z,99756.72
2022-08-27T10:49:13.928Z,99753.34
2022-08-27T10:52:42.078Z,99759.00
2022-08-27T10:55:51.797Z,99755.19
2022-08-27T10:59:17.560Z,99752.09
2022-08-27T11:02:42.256Z,99752.47
2022-08-27T11:05:49.800Z,99752.22
2022-08-27T11:08:57.953Z,99751.28
2022-08-27T11:12:19.164Z,99754.47
2022-08-27T11:15:29.339Z,99749.66
2022-08-27T11:19:19.638Z,99741.16
2022-08-27T11:22:26.129Z,99751.44
2022-08-27T11:25:51.005Z,99736.38
2022-08-27T11:28:55.768Z,99730.00
2022-08-27T11:32:10.394Z,99722.06
2022-08-27T11:35:29.234Z,99725.22
2022-08-27T11:38:55.256Z,99710.19
2022-08-27T11:42:18.625Z,99704.97
2022-08-27T11:45:34.912Z,99706.78
2022-08-27T11:48:43.209Z,99708.50
2022-08-27T11:51:45.917Z,99716.63
2022-08-27T11:54:52.361Z,99700.28
2022-08-27T11:58:27.496Z,99702.78
2022-08-27T12:01:31.926Z,99701.25
2022-08-27T12:04:38.060Z,99700.81
2022-08-27T12:07:42.151Z,99707.28
2022-08-27T12:11:03.777Z,99702.75
2022-08-27T12:14:14.766Z,99706.72
2022-08-27T12:17:22.434Z,99692.03
2022-08-27T12:20:43.802Z,99707.81
2022-08-27T12:23:51.102Z,99703.72
2022-08-27T12:26:58.484Z,99703.59
2022-08-27T12:30:19.937Z,99713.56
2022-08-27T12:33:45.950Z,99703.47
2022-08-27T12:36:50.408Z,99709.16
2022-08-27T12:39:54.029Z,99698.44
2022-08-27T12:43:09.011Z,99691.62
2022-08-27T12:46:18.198Z,99694.56
2022-08-27T12:49:38.214Z,99685.00
2022-08-27T12:52:51.257Z,99689.34
2022-08-27T12:56:19.380Z,99678.12
2022-08-27T13:00:01.073Z,99678.31
2022-08-27T13:03:07.140Z,99682.31
2022-08-27T13:06:29.135Z,99684.03
2022-08-27T13:09:34.713Z,99676.41
2022-08-27T13:12:37.199Z,99672.84
2022-08-27T13:15:46.795Z,99674.13
2022-08-27T13:18:50.206Z,99669.16
2022-08-27T13:21:54.436Z,99667.81
2022-08-27T13:24:57.778Z,99664.50
2022-08-27T13:28:10.434Z,99661.34
2022-08-27T13:31:14.453Z,99661.72
2022-08-27T13:34:22.736Z,99664.00
2022-08-27T13:37:34.444Z,99661.16
2022-08-27T13:40:50.771Z,99654.31
2022-08-27T13:43:58.533Z,99665.91
2022-08-27T13:47:04.831Z,99652.06
2022-08-27T13:50:34.709Z,99654.78
2022-08-27T13:54:06.738Z,99661.88
2022-08-27T13:57:11.329Z,99658.75
2022-08-27T14:00:18.745Z,99660.09
2022-08-27T14:03:35.218Z,99657.34
2022-08-27T14:06:45.975Z,99658.37
2022-08-27T14:09:59.059Z,99657.56
2022-08-27T14:13:04.947Z,99651.53
2022-08-27T14:16:22.234Z,99665.09
2022-08-27T14:19:35.093Z,99658.13
2022-08-27T14:22:39.985Z,99654.06
2022-08-27T14:25:42.632Z,99658.16
2022-08-27T14:28:46.480Z,99660.31
2022-08-27T14:31:49.079Z,99665.22
2022-08-27T14:34:51.923Z,99653.09
2022-08-27T14:37:54.805Z,99651.66
2022-08-27T14:41:00.689Z,99660.47
2022-08-27T14:44:03.746Z,99660.84
2022-08-27T14:47:09.572Z,99665.87
2022-08-27T14:50:14.199Z,99656.69
2022-08-27T14:53:17.611Z,99649.69
2022-08-27T14:56:20.997Z,99645.66
2022-08-27T14:59:23.988Z,99648.56
2022-08-27T15:02:26.588Z,99641.59
2022-08-27T15:05:29.469Z,99646.66
2022-08-27T15:08:32.350Z,99655.16
2022-08-27T15:11:39.804Z,99644.47
2022-08-27T15:14:45.570Z,99649.28
2022-08-27T15:17:48.349Z,99636.34
2022-08-27T15:20:50.977Z,99639.59
2022-08-27T15:24:01.538Z,99628.81
2022-08-27T15:27:04.436Z,99624.53
2022-08-27T15:30:09.029Z,99624.84
2022-08-27T15:33:11.693Z,99623.25
2022-08-27T15:36:14.612Z,99622.38
2022-08-27T15:39:17.293Z,99624.59
2022-08-27T15:42:20.395Z,99619.09
2022-08-27T15:45:27.363Z,99622.44
2022-08-27T15:48:31.264Z,99626.56
2022-08-27T15:51:34.176Z,99625.53
2022-08-27T15:54:37.365Z,99630.84
2022-08-27T15:57:40.256Z,99635.56
2022-08-27T16:00:43.966Z,99633.50
2022-08-27T16:03:46.956Z,99629.03
2022-08-27T16:06:49.567Z,99629.03
2022-08-27T16:09:52.444Z,99633.13
2022-08-27T16:12:55.039Z,99636.78
2022-08-27T16:15:58.072Z,99643.34
2022-08-27T16:19:02.302Z,99632.12
2022-08-27T16:22:07.040Z,99631.44
2022-08-27T16:25:13.133Z,99638.16
2022-08-27T16:28:18.560Z,99645.16
2022-08-27T16:31:22.052Z,99637.16
2022-08-27T16:34:26.730Z,99642.69
2022-08-27T16:37:29.255Z,99650.72
2022-08-27T16:40:34.325Z,99650.56
2022-08-27T16:43:37.480Z,99652.75
2022-08-27T16:46:40.521Z,99651.59
2022-08-27T16:50:01.434Z,99655.81
2022-08-27T17:00:42.902Z,99665.13
2022-08-27T17:07:11.566Z,99670.22
2022-08-27T17:10:14.702Z,99673.84
2022-08-27T17:13:20.146Z,99682.56
2022-08-27T17:16:26.145Z,99676.72
2022-08-27T17:19:28.675Z,99679.06
2022-08-27T17:22:31.469Z,99674.97
2022-08-27T17:25:34.035Z,99687.94
2022-08-27T17:28:41.528Z,99690.91
2022-08-27T17:31:44.024Z,99689.97
2022-08-27T17:34:46.886Z,99683.78
2022-08-27T17:37:49.404Z,99698.81
2022-08-27T17:40:53.758Z,99695.09
2022-08-27T17:43:59.405Z,99711.87
2022-08-27T17:47:04.789Z,99711.94
2022-08-27T17:50:07.453Z,99724.88
2022-08-27T17:53:10.312Z,99721.53
2022-08-27T17:56:14.645Z,99725.22
2022-08-27T17:59:17.411Z,99736.91
2022-08-27T18:02:25.686Z,99745.84
2022-08-27T18:05:28.855Z,99752.62
2022-08-27T18:08:31.400Z,99754.75
2022-08-27T18:11:34.497Z,99748.38
2022-08-27T18:14:36.997Z,99759.97
2022-08-27T18:17:39.857Z,99759.72
2022-08-27T18:20:45.017Z,99760.00
2022-08-27T18:23:48.366Z,99780.19
2022-08-27T18:26:51.096Z,99772.69
2022-08-27T18:29:56.382Z,99755.25
2022-08-27T18:33:00.077Z,99768.53
2022-08-27T18:36:04.160Z,99772.19
2022-08-27T18:39:06.608Z,99780.56
2022-08-27T18:42:09.620Z,99775.41
2022-08-27T18:45:15.848Z,99785.47
2022-08-27T18:48:21.735Z,99784.47
2022-08-27T18:51:24.304Z,99782.81
2022-08-27T18:54:27.950Z,99788.72
2022-08-27T18:57:30.456Z,99778.94
2022-08-27T19:00:33.257Z,99779.81
2022-08-27T19:03:38.816Z,99777.94
2022-08-27T19:06:41.862Z,99779.31
2022-08-27T19:09:44.379Z,99774.56
2022-08-27T19:12:47.901Z,99782.31
2022-08-27T19:15:55.381Z,99780.69
2022-08-27T19:18:58.221Z,99784.06
2022-08-27T19:22:00.828Z,99773.03
2022-08-27T19:25:09.752Z,99770.78
2022-08-27T19:28:12.555Z,99775.28
2022-08-27T19:31:16.013Z,99772.78
2022-08-27T19:34:18.682Z,99769.62
2022-08-27T19:37:24.585Z,99762.44
2022-08-27T19:40:27.265Z,99737.09
2022-08-27T19:43:30.632Z,99752.72
2022-08-27T19:46:35.362Z,99750.09
2022-08-27T19:49:40.229Z,99748.97
2022-08-27T19:52:43.091Z,99754.59
2022-08-27T19:55:46.176Z,99747.41
2022-08-27T19:58:48.686Z,99747.00
2022-08-27T20:01:52.869Z,99740.75
2022-08-27T20:05:16.256Z,99763.09
2022-08-27T20:08:19.417Z,99762.75
2022-08-27T20:11:23.071Z,99766.59
2022-08-27T20:14:25.646Z,99771.34
2022-08-27T20:17:28.456Z,99767.28
2022-08-27T20:20:32.394Z,99765.97
2022-08-27T20:23:35.187Z,99769.78
2022-08-27T20:26:38.014Z,99768.97
2022-08-27T20:29:42.173Z,99778.09
2022-08-27T20:32:46.813Z,99772.13
2022-08-27T20:35:49.696Z,99787.94
2022-08-27T20:38:53.218Z,99792.66
2022-08-27T20:41:56.045Z,99802.44
2022-08-27T20:44:58.620Z,99795.19
2022-08-27T20:48:04.223Z,99798.06
2022-08-27T20:51:06.907Z,99805.72
2022-08-27T20:54:09.726Z,99809.66
2022-08-27T20:57:12.741Z,99828.44
2022-08-27T21:00:22.192Z,99833.63
2022-08-27T21:03:25.350Z,99831.88
2022-08-27T21:06:30.931Z,99846.69
2022-08-27T21:09:36.253Z,99840.87
2022-08-27T21:13:01.219Z,99845.12
2022-08-27T21:16:06.183Z,99850.75
2022-08-27T21:19:09.052Z,99865.59
2022-08-27T21:22:11.565Z,99862.06
2022-08-27T21:25:14.603Z,99864.59
2022-08-27T21:28:17.343Z,99866.16
2022-08-27T21:31:20.179Z,99870.34
2022-08-27T21:34:22.798Z,99882.62
2022-08-27T21:37:25.639Z,99890.66
2022-08-27T21:40:29.653Z,99902.63
2022-08-27T21:43:32.703Z,99904.06
2022-08-27T21:46:35.253Z,99921.53
2022-08-27T21:49:39.652Z,99923.94
2022-08-27T21:52:42.198Z,99913.22
2022-08-27T21:55:45.982Z,99917.81
2022-08-27T21:58:48.560Z,99927.56
2022-08-27T22:02:00.201Z,99911.66
2022-08-27T22:05:04.060Z,99894.28
2022-08-27T22:08:06.845Z,99891.75
2022-08-27T22:11:10.860Z,99879.75
2022-08-27T22:14:13.604Z,99874.59
2022-08-27T22:17:16.719Z,99867.56
2022-08-27T22:20:20.204Z,99851.63
2022-08-27T22:23:23.378Z,99844.75
2022-08-27T22:26:25.917Z,99856.84
2022-08-27T22:29:28.686Z,99863.94
2022-08-27T22:32:33.469Z,99885.88
2022-08-27T22:35:36.242Z,99923.66
2022-08-27T22:38:38.738Z,99942.53
2022-08-27T22:41:45.290Z,99945.47
2022-08-27T22:44:51.201Z,99933.59
2022-08-27T22:47:54.733Z,99906.91
2022-08-27T22:50:57.213Z,99892.44
2022-08-27T22:54:00.032Z,99894.44
2022-08-27T22:57:02.529Z,99921.81
2022-08-27T23:00:11.567Z,99939.06
2022-08-27T23:03:14.879Z,99959.03
2022-08-27T23:06:17.637Z,99995.09
2022-08-27T23:09:20.122Z,100022.44
2022-08-27T23:12:23.077Z,100040.34
2022-08-27T23:15:27.684Z,100053.16
2022-08-27T23:18:30.886Z,100091.34
2022-08-27T23:21:33.388Z,100095.94
2022-08-27T23:24:59.139Z,100101.16
2022-08-27T23:28:06.261Z,100096.69
2022-08-27T23:31:09.386Z,100080.38
2022-08-27T23:34:11.921Z,100077.31
2022-08-27T23:37:14.719Z,100082.44
2022-08-27T23:40:17.750Z,100093.59
2022-08-27T23:43:20.992Z,100087.66
2022-08-27T23:46:23.922Z,100096.16
2022-08-27T23:49:26.776Z,100098.19
2022-08-27T23:52:29.296Z,100092.63
2022-08-27T23:55:33.807Z,100087.91
2022-08-27T23:58:36.355Z,100074.25
